Time;durP1;ratioP1;P1;durP2;ratioP2;P2;SDS_P1;SDS_P2;PMS_P1;PMS_P2;Temp;Humidity;BMP_temperature;BMP_pressure;BME280_temperature;BME280_humidity;BME280_pressure;Samples;Min_cycle;Max_cycle;Signal;HPM_P1;HPM_P2
2023/01/04 00:02:03;;;;;;;4.10;1.60;;;14.00;66.40;;;;;;4831146;29;20069;-78
2023/01/04 00:04:28;;;;;;;5.55;1.63;;;14.00;66.50;;;;;;4846810;29;20053;-79
2023/01/04 00:06:55;;;;;;;5.25;1.58;;;14.00;66.50;;;;;;4830437;29;20397;-76
2023/01/04 00:09:21;;;;;;;5.07;1.27;;;14.00;66.60;;;;;;4830792;29;20060;-78
2023/01/04 00:11:47;;;;;;;4.75;1.45;;;14.00;66.70;;;;;;4829672;29;20057;-76
2023/01/04 00:14:13;;;;;;;3.65;1.50;;;14.00;66.70;;;;;;4827525;29;20042;-78
2023/01/04 00:16:39;;;;;;;3.75;1.10;;;13.90;66.70;;;;;;4828019;29;20466;-78
2023/01/04 00:19:04;;;;;;;3.42;1.40;;;13.90;66.80;;;;;;4828074;29;20051;-77
2023/01/04 00:21:30;;;;;;;6.05;1.90;;;13.90;66.90;;;;;;4827848;29;20086;-77
2023/01/04 00:23:59;;;;;;;4.07;1.33;;;13.90;66.90;;;;;;4844584;29;20050;-76
2023/01/04 00:26:31;;;;;;;4.82;1.63;;;13.90;67.10;;;;;;4846049;29;20046;-75
2023/01/04 00:29:03;;;;;;;3.00;1.20;;;13.90;67.10;;;;;;4829974;29;20082;-78
2023/01/04 00:31:29;;;;;;;4.15;1.90;;;13.90;67.20;;;;;;4846599;29;20450;-79
2023/01/04 00:33:56;;;;;;;7.00;2.00;;;13.90;67.20;;;;;;4829161;29;20107;-78
2023/01/04 00:36:22;;;;;;;5.18;1.27;;;13.90;67.20;;;;;;4826791;29;20074;-78
2023/01/04 00:39:05;;;;;;;3.08;1.33;;;13.90;67.30;;;;;;4827961;29;20376;-76
2023/01/04 00:41:33;;;;;;;2.13;0.85;;;13.90;67.30;;;;;;4809693;29;20054;-77
2023/01/04 00:44:02;;;;;;;4.90;1.17;;;13.90;67.40;;;;;;4825947;29;20050;-76
2023/01/04 00:46:28;;;;;;;3.05;1.20;;;13.90;67.50;;;;;;4811670;29;20070;-79
2023/01/04 00:48:54;;;;;;;3.67;1.40;;;13.90;67.50;;;;;;4827470;29;20187;-78
2023/01/04 00:51:19;;;;;;;5.93;1.30;;;13.90;67.50;;;;;;4827635;29;20095;-78
2023/01/04 00:53:45;;;;;;;3.78;1.27;;;13.90;67.60;;;;;;4812130;29;20055;-76
2023/01/04 00:56:11;;;;;;;3.03;1.10;;;13.80;67.60;;;;;;4809730;29;20061;-77
2023/01/04 00:58:36;;;;;;;4.63;1.45;;;13.90;67.60;;;;;;4810597;29;20046;-77
2023/01/04 01:01:08;;;;;;;4.30;1.38;;;13.80;67.70;;;;;;4827247;29;20378;-78
2023/01/04 01:03:35;;;;;;;3.10;1.13;;;13.80;67.70;;;;;;4827140;29;20046;-79
2023/01/04 01:06:04;;;;;;;2.63;1.27;;;13.80;67.80;;;;;;4827787;29;20346;-78
2023/01/04 01:08:32;;;;;;;2.55;1.23;;;13.80;67.80;;;;;;4841765;29;20344;-78
2023/01/04 01:11:04;;;;;;;3.97;1.45;;;13.80;67.90;;;;;;4810041;29;20059;-77
2023/01/04 01:13:30;;;;;;;1.83;0.80;;;13.80;68.00;;;;;;4808911;29;20062;-77
2023/01/04 01:15:55;;;;;;;1.60;0.82;;;13.80;68.10;;;;;;4819962;29;20135;-77
2023/01/04 01:18:21;;;;;;;3.03;1.10;;;13.80;68.20;;;;;;4810898;29;20441;-76
2023/01/04 01:20:47;;;;;;;3.47;1.08;;;13.80;68.20;;;;;;4814576;29;20046;-77
2023/01/04 01:23:14;;;;;;;5.05;1.33;;;13.80;68.30;;;;;;4808610;29;20078;-76
2023/01/04 01:25:40;;;;;;;4.25;0.90;;;13.80;68.30;;;;;;4809153;29;20082;-78
2023/01/04 01:28:07;;;;;;;2.83;0.85;;;13.80;68.40;;;;;;4808875;29;20051;-77
2023/01/04 01:30:32;;;;;;;3.25;1.10;;;13.80;68.40;;;;;;4816225;29;20064;-76
2023/01/04 01:32:58;;;;;;;3.53;1.20;;;13.80;68.40;;;;;;4826840;29;20129;-77
2023/01/04 01:35:24;;;;;;;3.03;0.98;;;13.70;68.40;;;;;;4840939;29;20114;-76
2023/01/04 01:37:49;;;;;;;2.80;0.88;;;13.70;68.40;;;;;;4826653;29;20458;-79
2023/01/04 01:40:15;;;;;;;1.85;0.85;;;13.80;68.50;;;;;;4834674;29;20062;-79
2023/01/04 01:42:41;;;;;;;3.92;1.05;;;13.70;68.50;;;;;;4845045;29;20065;-78
2023/01/04 01:45:31;;;;;;;3.80;0.90;;;13.70;68.50;;;;;;4828433;29;20053;-79
2023/01/04 01:48:09;;;;;;;2.92;0.60;;;13.70;68.60;;;;;;4844763;29;20091;-76
2023/01/04 01:50:53;;;;;;;3.20;1.27;;;13.70;68.60;;;;;;4843451;29;20049;-80
2023/01/04 01:53:19;;;;;;;3.47;0.70;;;13.70;68.70;;;;;;4826217;29;20085;-76
2023/01/04 01:55:49;;;;;;;2.17;0.88;;;13.60;68.70;;;;;;4826635;29;20058;-77
2023/01/04 01:58:29;;;;;;;3.20;0.65;;;13.70;68.80;;;;;;4826642;29;20077;-79
2023/01/04 02:00:55;;;;;;;3.08;0.73;;;13.60;68.80;;;;;;4830636;29;20042;-76
2023/01/04 02:03:25;;;;;;;1.42;0.50;;;13.60;68.80;;;;;;4811443;29;20069;-79
2023/01/04 02:05:54;;;;;;;4.47;0.80;;;13.60;68.90;;;;;;4826413;29;20054;-77
2023/01/04 02:08:23;;;;;;;1.58;0.57;;;13.60;68.90;;;;;;4825243;29;20472;-79
2023/01/04 02:10:49;;;;;;;1.33;0.43;;;13.60;69.00;;;;;;4826859;29;20047;-76
2023/01/04 02:13:20;;;;;;;1.65;0.52;;;13.60;69.10;;;;;;4827086;29;20061;-78
2023/01/04 02:16:14;;;;;;;1.83;0.75;;;13.60;69.10;;;;;;4826580;29;20057;-76
2023/01/04 02:18:53;;;;;;;2.22;0.63;;;13.60;69.10;;;;;;4826932;29;20137;-76
2023/01/04 02:21:27;;;;;;;1.20;0.30;;;13.60;69.20;;;;;;4810772;29;20473;-79
2023/01/04 02:24:25;;;;;;;1.40;0.40;;;13.60;69.30;;;;;;4844212;29;20053;-77
2023/01/04 02:27:09;;;;;;;0.65;0.28;;;13.60;69.30;;;;;;4844349;29;20050;-76
2023/01/04 02:29:58;;;;;;;1.63;0.50;;;13.60;69.40;;;;;;4844347;29;20386;-78
2023/01/04 02:32:36;;;;;;;2.25;0.20;;;13.60;69.40;;;;;;4835460;29;20050;-78
2023/01/04 02:35:16;;;;;;;1.10;0.30;;;13.60;69.50;;;;;;4826255;29;20122;-76
2023/01/04 02:38:08;;;;;;;2.08;0.50;;;13.60;69.60;;;;;;4795243;29;20137;-79
2023/01/04 02:41:01;;;;;;;1.85;0.20;;;13.50;69.60;;;;;;4825664;29;20097;-76
2023/01/04 02:46:34;;;;;;;0.57;0.20;;;13.50;69.70;;;;;;4828086;29;20465;-79
2023/01/04 02:51:46;;;;;;;1.02;0.30;;;13.50;69.80;;;;;;4840431;29;20051;-78
2023/01/04 02:54:19;;;;;;;1.30;0.38;;;13.50;69.80;;;;;;4825810;29;20057;-77
2023/01/04 02:57:16;;;;;;;0.73;0.17;;;13.50;69.90;;;;;;4825804;29;20077;-76
2023/01/04 02:59:52;;;;;;;0.77;0.10;;;13.50;69.90;;;;;;4825195;29;20085;-77
2023/01/04 03:08:38;;;;;;;1.13;0.20;;;13.50;70.20;;;;;;4843879;29;20404;-78
2023/01/04 03:12:30;;;;;;;0.50;0.10;;;13.50;70.30;;;;;;4844487;29;20046;-80
2023/01/04 03:14:05;;;;;;;0.77;0.20;;;13.50;70.50;;;;;;4825979;29;20496;-77
2023/01/04 03:16:34;;;;;;;1.05;0.20;;;13.50;70.60;;;;;;4826509;29;20320;-78
2023/01/04 03:19:03;;;;;;;1.13;0.40;;;13.50;70.70;;;;;;4825622;29;20095;-79
2023/01/04 03:21:30;;;;;;;0.60;0.20;;;13.50;70.80;;;;;;4828346;29;20058;-78
2023/01/04 03:35:58;;;;;;;3.55;0.60;;;13.50;71.20;;;;;;4830714;29;20541;-77
2023/01/04 03:50:22;;;;;;;1.87;0.40;;;13.50;71.50;;;;;;4828488;29;20061;-78
2023/01/04 03:52:50;;;;;;;1.70;0.40;;;13.50;71.60;;;;;;4822230;29;20147;-80
2023/01/04 03:55:17;;;;;;;1.75;0.45;;;13.60;71.80;;;;;;4830788;29;20061;-79
2023/01/04 03:57:45;;;;;;;3.15;0.80;;;13.60;71.80;;;;;;4846713;29;20452;-77
2023/01/04 04:00:13;;;;;;;3.60;0.85;;;13.60;71.90;;;;;;4830469;29;20046;-77
2023/01/04 04:02:40;;;;;;;2.47;0.82;;;13.60;72.10;;;;;;4837489;29;20049;-79
2023/01/04 04:10:36;;;;;;;4.28;1.00;;;13.60;72.40;;;;;;4827915;29;20054;-78
2023/01/04 04:13:01;;;;;;;3.95;1.00;;;13.60;72.50;;;;;;4839392;29;20042;-78
2023/01/04 04:15:27;;;;;;;2.88;0.88;;;13.60;72.60;;;;;;4846649;29;20057;-79
2023/01/04 04:17:53;;;;;;;3.78;1.42;;;13.60;72.70;;;;;;4846259;29;20128;-79
2023/01/04 04:20:18;;;;;;;3.55;1.25;;;13.60;72.80;;;;;;4846764;29;20062;-77
2023/01/04 04:22:44;;;;;;;3.13;1.10;;;13.60;73.00;;;;;;4836621;29;20054;-80
2023/01/04 04:25:10;;;;;;;6.57;1.95;;;13.60;73.10;;;;;;4828053;29;20054;-80
2023/01/04 04:27:35;;;;;;;3.38;0.82;;;13.60;73.20;;;;;;4811732;29;20125;-80
2023/01/04 04:30:01;;;;;;;4.97;1.23;;;13.60;73.30;;;;;;4812197;29;20058;-78
2023/01/04 04:32:27;;;;;;;4.53;1.58;;;13.60;73.40;;;;;;4833579;29;20061;-77
2023/01/04 04:34:53;;;;;;;11.15;2.20;;;13.60;73.40;;;;;;4830113;29;20385;-78
2023/01/04 04:37:18;;;;;;;3.60;1.10;;;13.60;73.50;;;;;;4846661;29;20069;-79
2023/01/04 04:39:44;;;;;;;5.05;1.50;;;13.60;73.50;;;;;;4846066;29;20061;-77
2023/01/04 04:42:10;;;;;;;4.88;1.42;;;13.60;73.60;;;;;;4841169;29;20054;-76
2023/01/04 04:44:36;;;;;;;3.15;1.10;;;13.70;73.70;;;;;;4827995;29;20117;-76
2023/01/04 04:47:01;;;;;;;4.72;1.30;;;13.60;73.80;;;;;;4827377;29;20343;-77
2023/01/04 04:49:27;;;;;;;5.00;0.93;;;13.60;73.80;;;;;;4827572;29;20050;-76
2023/01/04 04:51:53;;;;;;;6.45;1.38;;;13.60;73.90;;;;;;4813406;29;20145;-77
2023/01/04 04:54:20;;;;;;;5.13;1.88;;;13.60;73.90;;;;;;4829721;29;20370;-77
2023/01/04 04:56:47;;;;;;;6.40;1.40;;;13.60;74.00;;;;;;4846407;29;20054;-78
2023/01/04 04:59:13;;;;;;;4.90;1.17;;;13.60;74.10;;;;;;4845514;29;20061;-77
2023/01/04 05:01:39;;;;;;;3.65;1.27;;;13.70;74.20;;;;;;4845152;29;20046;-79
2023/01/04 05:04:05;;;;;;;5.55;1.30;;;13.60;74.10;;;;;;4827269;29;20107;-80
2023/01/04 05:06:31;;;;;;;3.15;1.13;;;13.70;74.20;;;;;;4827419;29;20089;-77
2023/01/04 05:08:57;;;;;;;2.60;0.85;;;13.70;74.40;;;;;;4829560;29;20076;-78
2023/01/04 05:14:08;;;;;;;4.43;0.88;;;13.70;74.50;;;;;;4845275;29;20050;-77
2023/01/04 05:16:34;;;;;;;3.95;0.80;;;13.70;74.50;;;;;;4829229;29;20102;-77
2023/01/04 05:22:39;;;;;;;4.95;1.15;;;13.70;74.60;;;;;;4833848;29;20062;-80
2023/01/04 05:25:07;;;;;;;6.40;0.98;;;13.70;74.60;;;;;;4828876;29;20353;-77
2023/01/04 05:27:35;;;;;;;8.25;0.80;;;13.70;74.90;;;;;;4844355;29;20049;-79
2023/01/04 05:33:14;;;;;;;4.22;0.93;;;14.00;76.00;;;;;;4844570;29;20129;-80
2023/01/04 05:35:40;;;;;;;6.45;0.90;;;14.20;75.20;;;;;;4844805;29;20041;-84
2023/01/04 05:38:15;;;;;;;9.23;0.88;;;14.40;74.90;;;;;;4815600;29;20056;-78
2023/01/04 05:40:44;;;;;;;5.82;1.27;;;14.60;74.50;;;;;;4843510;29;20065;-80
2023/01/04 05:43:12;;;;;;;6.90;1.40;;;14.70;74.60;;;;;;4843599;29;20049;-77
2023/01/04 05:45:39;;;;;;;11.68;1.45;;;14.80;74.40;;;;;;4844172;29;20469;-76
2023/01/04 05:48:05;;;;;;;8.88;1.88;;;14.80;74.40;;;;;;4827380;29;20081;-76
2023/01/04 05:50:31;;;;;;;8.38;1.02;;;14.90;74.50;;;;;;4825244;29;20050;-77
2023/01/04 05:52:57;;;;;;;10.15;1.23;;;15.00;74.60;;;;;;4810612;29;20137;-80
2023/01/04 05:55:23;;;;;;;12.45;1.55;;;15.00;74.50;;;;;;4810432;29;20046;-80
2023/01/04 05:57:50;;;;;;;13.70;1.95;;;15.10;74.50;;;;;;4825542;29;20046;-79
2023/01/04 06:00:16;;;;;;;13.90;1.60;;;15.10;74.50;;;;;;4811392;29;20370;-79
2023/01/04 06:02:42;;;;;;;11.15;1.45;;;15.20;74.60;;;;;;4843690;29;20045;-79
2023/01/04 06:05:12;;;;;;;10.48;1.30;;;15.20;74.70;;;;;;4828518;29;20038;-83
2023/01/04 06:07:38;;;;;;;11.07;1.73;;;15.30;74.70;;;;;;4828554;29;20077;-75
2023/01/04 06:10:06;;;;;;;15.32;2.22;;;15.30;74.60;;;;;;4843507;29;20593;-78
2023/01/04 06:12:32;;;;;;;10.07;0.95;;;15.50;74.50;;;;;;4828005;29;20450;-79
2023/01/04 06:15:04;;;;;;;7.93;1.40;;;15.60;74.20;;;;;;4842368;29;20042;-77
2023/01/04 06:17:30;;;;;;;8.57;1.52;;;15.70;74.00;;;;;;4842915;29;20385;-78
2023/01/04 06:19:56;;;;;;;8.75;1.98;;;15.70;73.80;;;;;;4844594;29;20050;-80
2023/01/04 06:22:22;;;;;;;12.43;1.08;;;15.80;73.80;;;;;;4843705;29;20374;-77
2023/01/04 06:24:47;;;;;;;7.45;1.17;;;15.90;73.80;;;;;;4843941;29;20054;-80
2023/01/04 06:27:13;;;;;;;7.22;1.10;;;16.00;73.60;;;;;;4844195;29;20454;-81
2023/01/04 06:29:39;;;;;;;12.15;1.15;;;16.10;73.50;;;;;;4844231;29;20072;-79
2023/01/04 06:32:05;;;;;;;11.38;1.70;;;16.10;73.30;;;;;;4829843;29;20054;-77
2023/01/04 06:34:30;;;;;;;8.32;1.80;;;16.20;73.30;;;;;;4809959;29;20473;-79
2023/01/04 06:36:56;;;;;;;20.65;2.15;;;16.20;73.20;;;;;;4810041;29;20097;-77
2023/01/04 06:39:34;;;;;;;7.40;1.15;;;16.10;73.20;;;;;;4825316;29;20106;-82
2023/01/04 06:42:00;;;;;;;11.65;2.38;;;16.20;73.40;;;;;;4838409;29;20050;-83
2023/01/04 06:44:25;;;;;;;12.05;2.13;;;16.20;73.60;;;;;;4827889;29;20083;-83
2023/01/04 06:46:51;;;;;;;13.00;1.58;;;16.20;73.50;;;;;;4828151;29;20038;-82
2023/01/04 06:49:17;;;;;;;10.07;2.13;;;16.20;73.20;;;;;;4827826;29;20088;-80
2023/01/04 06:51:42;;;;;;;9.65;1.95;;;16.30;73.00;;;;;;4831705;29;20046;-81
2023/01/04 06:54:13;;;;;;;15.82;2.08;;;16.20;72.80;;;;;;4825283;29;20427;-82
2023/01/04 06:56:39;;;;;;;11.98;1.88;;;16.20;72.70;;;;;;4813123;29;20145;-81
2023/01/04 06:59:06;;;;;;;7.15;1.20;;;16.30;72.80;;;;;;4828910;29;20178;-80
2023/01/04 07:01:38;;;;;;;11.68;1.80;;;16.30;72.90;;;;;;4837400;29;20038;-82
2023/01/04 07:04:03;;;;;;;13.88;2.47;;;16.40;73.00;;;;;;4831289;29;20108;-81
2023/01/04 07:06:54;;;;;;;12.57;1.90;;;16.40;72.90;;;;;;4829862;29;20050;-82
2023/01/04 07:09:23;;;;;;;16.73;2.45;;;16.40;73.00;;;;;;4845963;29;20053;-80
2023/01/04 07:11:49;;;;;;;14.50;2.20;;;16.40;72.90;;;;;;4846656;29;20042;-81
2023/01/04 07:14:15;;;;;;;14.80;1.98;;;16.40;73.00;;;;;;4816864;29;20043;-77
2023/01/04 07:16:41;;;;;;;14.82;1.83;;;16.40;72.80;;;;;;4812336;29;20056;-76
2023/01/04 07:19:07;;;;;;;9.30;1.95;;;16.40;72.90;;;;;;4828650;29;20073;-76
2023/01/04 07:21:33;;;;;;;10.57;1.90;;;16.30;72.50;;;;;;4829363;29;20177;-78
2023/01/04 07:23:59;;;;;;;8.18;2.10;;;16.30;72.80;;;;;;4828730;29;20058;-77
2023/01/04 07:26:24;;;;;;;10.23;2.25;;;16.00;70.10;;;;;;4829380;29;20051;-76
2023/01/04 07:31:34;;;;;;;;;;;15.90;72.80;;;;;;4847261;29;20057;-76
2023/01/04 07:34:05;;;;;;;22.13;3.15;;;15.90;71.60;;;;;;4846990;29;19924;-77
2023/01/04 07:36:30;;;;;;;12.82;2.25;;;15.40;72.70;;;;;;4846839;29;20377;-78
2023/01/04 07:38:59;;;;;;;9.82;2.58;;;15.50;73.70;;;;;;4847130;29;20054;-78
2023/01/04 07:41:24;;;;;;;15.55;2.15;;;15.70;73.80;;;;;;4845658;29;20150;-86
2023/01/04 07:43:50;;;;;;;11.35;2.60;;;15.80;73.70;;;;;;4829174;29;20046;-87
2023/01/04 07:46:22;;;;;;;15.95;2.33;;;15.90;73.50;;;;;;4829074;29;20087;-74
2023/01/04 07:48:47;;;;;;;14.80;2.38;;;16.00;73.30;;;;;;4846201;29;20077;-83
2023/01/04 07:51:13;;;;;;;12.73;1.85;;;16.10;73.10;;;;;;4830386;29;20053;-83
2023/01/04 07:53:39;;;;;;;12.63;2.40;;;16.10;72.90;;;;;;4842571;29;20058;-79
2023/01/04 07:56:05;;;;;;;9.65;2.00;;;16.10;72.70;;;;;;4836595;29;20050;-80
2023/01/04 07:58:32;;;;;;;6.32;1.63;;;16.10;72.50;;;;;;4827044;29;20083;-83
2023/01/04 08:01:06;;;;;;;9.60;2.20;;;16.10;72.50;;;;;;4832343;29;20086;-80
2023/01/04 08:03:32;;;;;;;7.80;1.90;;;16.10;72.40;;;;;;4846239;29;20042;-79
2023/01/04 08:06:01;;;;;;;11.90;1.70;;;16.10;72.40;;;;;;4843417;29;20049;-76
2023/01/04 08:08:29;;;;;;;10.77;2.25;;;16.10;72.60;;;;;;4834566;29;20046;-83
2023/01/04 08:11:16;;;;;;;11.40;2.28;;;15.90;72.30;;;;;;4816539;29;20037;-82
2023/01/04 08:13:42;;;;;;;9.70;1.73;;;15.60;72.20;;;;;;4847926;29;20045;-81
2023/01/04 08:16:20;;;;;;;6.15;1.50;;;15.40;73.10;;;;;;4842045;29;20042;-79
2023/01/04 08:19:00;;;;;;;9.15;1.83;;;15.30;73.50;;;;;;4815573;29;20050;-81
2023/01/04 08:22:25;;;;;;;7.00;1.70;;;15.20;73.60;;;;;;4846281;29;20341;-83
2023/01/04 08:24:54;;;;;;;5.90;1.65;;;15.10;72.80;;;;;;4849467;29;20066;-85
2023/01/04 08:31:14;;;;;;;7.18;1.52;;;14.90;73.20;;;;;;4822767;29;20046;-83
2023/01/04 08:33:53;;;;;;;6.00;1.80;;;14.70;73.90;;;;;;4827095;29;20453;-84
2023/01/04 08:37:22;;;;;;;5.55;1.90;;;14.70;74.20;;;;;;4818489;29;20547;-85
2023/01/04 08:40:06;;;;;;;6.50;1.90;;;14.60;74.30;;;;;;4815052;29;20159;-85
2023/01/04 08:42:32;;;;;;;7.40;2.17;;;14.60;74.50;;;;;;4845606;29;20062;-82
2023/01/04 08:45:29;;;;;;;9.90;1.83;;;14.50;74.70;;;;;;4843100;29;20084;-85
2023/01/04 08:48:05;;;;;;;7.72;1.52;;;14.50;74.90;;;;;;4829545;29;20466;-84
2023/01/04 08:50:43;;;;;;;6.65;1.52;;;14.50;74.90;;;;;;4830535;29;20089;-84
2023/01/04 08:53:25;;;;;;;9.27;1.90;;;14.50;75.10;;;;;;4843348;29;20153;-83
2023/01/04 08:55:52;;;;;;;7.25;1.58;;;14.50;75.10;;;;;;4844162;29;20085;-80
2023/01/04 08:58:18;;;;;;;6.55;2.00;;;14.50;75.30;;;;;;4845378;29;20095;-80
2023/01/04 09:00:44;;;;;;;8.85;1.88;;;14.50;75.20;;;;;;4829528;29;20054;-77
2023/01/04 09:03:11;;;;;;;8.90;1.80;;;14.40;75.30;;;;;;4829866;29;20486;-84
2023/01/04 09:05:36;;;;;;;9.82;1.95;;;14.50;75.50;;;;;;4836645;29;20042;-80
2023/01/04 09:08:02;;;;;;;7.03;2.00;;;14.40;75.30;;;;;;4812491;29;20054;-77
2023/01/04 09:14:07;;;;;;;12.82;2.50;;;14.40;75.00;;;;;;4827664;29;20054;-77
2023/01/04 09:16:59;;;;;;;5.80;1.73;;;14.50;75.40;;;;;;4842981;29;20359;-81
2023/01/04 09:19:34;;;;;;;8.38;1.60;;;14.40;75.30;;;;;;4815626;29;20050;-80
2023/01/04 09:22:00;;;;;;;8.10;1.95;;;14.50;75.50;;;;;;4813753;29;20041;-84
2023/01/04 09:24:26;;;;;;;9.10;2.40;;;14.50;75.50;;;;;;4820184;29;20125;-79
2023/01/04 09:26:57;;;;;;;10.18;2.17;;;14.50;75.70;;;;;;4837776;29;20121;-82
2023/01/04 09:29:38;;;;;;;8.65;2.63;;;14.50;75.80;;;;;;4829453;29;20042;-84
2023/01/04 09:32:04;;;;;;;9.85;2.30;;;14.60;75.70;;;;;;4842556;29;20085;-78
2023/01/04 09:34:29;;;;;;;8.10;2.50;;;14.60;75.40;;;;;;4843531;29;20103;-75
2023/01/04 09:36:55;;;;;;;10.95;2.53;;;14.70;75.20;;;;;;4828083;29;20149;-80
2023/01/04 09:39:21;;;;;;;13.45;2.78;;;14.90;75.10;;;;;;4833843;29;20037;-75
2023/01/04 09:42:19;;;;;;;21.85;3.63;;;15.10;74.90;;;;;;4844752;29;20411;-85
2023/01/04 09:45:00;;;;;;;23.88;3.55;;;15.30;75.00;;;;;;4813047;29;20068;-73
2023/01/04 09:47:33;;;;;;;16.85;2.78;;;15.50;74.90;;;;;;4844796;29;20125;-79
2023/01/04 09:50:17;;;;;;;18.98;3.92;;;15.60;74.60;;;;;;4844634;29;20489;-75
2023/01/04 09:52:55;;;;;;;21.27;4.25;;;15.70;74.50;;;;;;4844216;29;20104;-78
2023/01/04 09:55:29;;;;;;;11.45;3.05;;;15.70;74.20;;;;;;4828173;29;20057;-78
2023/01/04 09:58:02;;;;;;;14.40;3.83;;;15.50;72.00;;;;;;4843248;29;20042;-77
2023/01/04 10:00:39;;;;;;;12.63;3.17;;;15.20;72.90;;;;;;4843082;29;20522;-78
2023/01/04 10:03:27;;;;;;;15.07;3.55;;;14.90;74.40;;;;;;4829647;29;20058;-78
2023/01/04 10:05:56;;;;;;;24.90;3.35;;;15.20;75.20;;;;;;4827596;29;20352;-84
2023/01/04 10:08:22;;;;;;;19.20;3.90;;;15.30;75.10;;;;;;4840349;29;20058;-81
2023/01/04 10:12:06;;;;;;;30.42;5.00;;;15.40;74.90;;;;;;4825657;29;20107;-80
2023/01/04 10:15:01;;;;;;;30.08;5.53;;;15.60;75.10;;;;;;4755507;30;20220;-82
2023/01/04 10:17:59;;;;;;;19.60;3.92;;;15.80;73.50;;;;;;4770181;30;20055;-80
2023/01/04 10:20:43;;;;;;;20.00;4.07;;;16.00;74.10;;;;;;4827524;29;20778;-83
2023/01/04 10:23:17;;;;;;;24.17;4.45;;;16.10;73.60;;;;;;4843131;29;20081;-76
2023/01/04 10:25:55;;;;;;;18.80;3.20;;;16.20;73.20;;;;;;4844276;29;20110;-77
2023/01/04 10:28:45;;;;;;;20.25;3.60;;;16.30;72.80;;;;;;4844036;29;20120;-75
2023/01/04 10:31:23;;;;;;;20.30;3.40;;;16.40;72.50;;;;;;4843404;29;20062;-76
2023/01/04 10:33:53;;;;;;;20.67;3.97;;;16.40;72.30;;;;;;4828163;29;20359;-76
2023/01/04 10:36:23;;;;;;;13.90;3.03;;;16.60;72.10;;;;;;4843835;29;20470;-76
2023/01/04 10:39:02;;;;;;;19.98;3.40;;;16.60;71.80;;;;;;4841350;29;20048;-75
2023/01/04 10:41:34;;;;;;;22.30;4.05;;;16.70;71.80;;;;;;4844348;29;20134;-77
2023/01/04 10:44:26;;;;;;;17.38;4.05;;;16.70;71.60;;;;;;4842761;29;20054;-76
2023/01/04 10:47:12;;;;;;;14.93;3.63;;;16.70;71.60;;;;;;4825147;29;20050;-78
2023/01/04 10:49:48;;;;;;;14.50;3.53;;;16.60;71.50;;;;;;4843866;29;20093;-77
2023/01/04 10:52:36;;;;;;;18.27;3.22;;;16.70;71.40;;;;;;4843954;29;20061;-77
2023/01/04 10:55:06;;;;;;;22.73;4.10;;;16.70;71.40;;;;;;4837383;29;20062;-78
2023/01/04 10:57:40;;;;;;;13.43;3.13;;;16.70;71.40;;;;;;4827201;29;20450;-75
2023/01/04 11:00:14;;;;;;;17.25;4.22;;;16.70;71.40;;;;;;4841786;29;20118;-82
2023/01/04 11:03:16;;;;;;;21.27;4.63;;;16.60;71.50;;;;;;4842449;29;20053;-74
2023/01/04 11:05:49;;;;;;;18.35;3.38;;;16.60;71.90;;;;;;4809230;29;20095;-76
2023/01/04 11:08:31;;;;;;;21.88;3.45;;;16.60;72.00;;;;;;4842931;29;20075;-76
2023/01/04 11:11:08;;;;;;;16.60;3.20;;;16.20;72.20;;;;;;4843824;29;20350;-77
2023/01/04 11:13:34;;;;;;;17.98;3.42;;;16.30;73.70;;;;;;4843921;29;20456;-74
2023/01/04 11:16:02;;;;;;;15.25;3.45;;;16.30;73.00;;;;;;4827577;29;20118;-76
2023/01/04 11:18:29;;;;;;;24.48;5.90;;;16.30;73.00;;;;;;4827538;29;20057;-75
2023/01/04 11:21:03;;;;;;;19.23;4.70;;;16.40;73.20;;;;;;4843613;29;20054;-82
2023/01/04 11:23:29;;;;;;;24.77;4.63;;;16.30;73.70;;;;;;4842204;29;20110;-75
2023/01/04 11:26:23;;;;;;;19.05;4.68;;;16.40;74.20;;;;;;4832068;29;20057;-73
2023/01/04 11:28:56;;;;;;;23.10;4.97;;;16.40;73.70;;;;;;4842232;29;20061;-74
2023/01/04 11:31:33;;;;;;;26.60;4.70;;;16.40;73.70;;;;;;4843422;29;20440;-74
2023/01/04 11:34:01;;;;;;;18.38;4.03;;;16.50;73.90;;;;;;4844628;29;20133;-76
2023/01/04 11:36:32;;;;;;;25.92;5.20;;;16.50;74.10;;;;;;4843355;29;20388;-76
2023/01/04 11:38:58;;;;;;;17.70;4.13;;;16.50;74.40;;;;;;4842719;29;20381;-74
2023/01/04 11:41:32;;;;;;;18.38;4.10;;;16.50;74.50;;;;;;4844282;29;20069;-75
2023/01/04 11:44:04;;;;;;;17.33;4.03;;;16.50;74.70;;;;;;4846637;29;20074;-76
2023/01/04 11:46:32;;;;;;;21.75;4.80;;;16.50;74.80;;;;;;4846611;29;20389;-77
2023/01/04 11:48:58;;;;;;;22.48;4.22;;;16.60;75.10;;;;;;4840139;29;20066;-76
2023/01/04 11:51:27;;;;;;;14.13;3.85;;;16.50;75.20;;;;;;4832019;29;20054;-74
2023/01/04 11:54:12;;;;;;;19.90;4.68;;;16.50;75.40;;;;;;4842455;29;20123;-75
2023/01/04 11:56:38;;;;;;;22.08;4.13;;;16.50;75.70;;;;;;4829306;29;20058;-75
2023/01/04 11:59:14;;;;;;;20.60;3.83;;;16.50;75.60;;;;;;4828401;29;20072;-77
2023/01/04 12:01:45;;;;;;;18.38;3.80;;;16.50;75.50;;;;;;4827805;29;20050;-77
2023/01/04 12:04:26;;;;;;;24.88;5.15;;;16.40;75.30;;;;;;4835010;29;20054;-77
2023/01/04 12:06:58;;;;;;;17.48;4.25;;;16.40;75.10;;;;;;4835169;29;20068;-76
2023/01/04 12:09:24;;;;;;;20.13;4.93;;;16.40;75.10;;;;;;4828371;29;20043;-77
2023/01/04 12:11:59;;;;;;;23.17;4.50;;;16.30;75.00;;;;;;4835195;29;20366;-76
2023/01/04 12:14:33;;;;;;;25.50;4.35;;;16.30;74.90;;;;;;4830501;29;20070;-77
2023/01/04 12:17:15;;;;;;;12.45;3.03;;;16.30;74.90;;;;;;4830635;29;20042;-79
2023/01/04 12:19:44;;;;;;;9.82;3.28;;;16.00;73.30;;;;;;4845881;29;20055;-79
2023/01/04 12:22:34;;;;;;;17.38;2.60;;;15.70;74.20;;;;;;4846047;29;20398;-79
2023/01/04 12:25:02;;;;;;;14.82;3.20;;;15.50;75.20;;;;;;4829347;29;20465;-74
2023/01/04 12:27:28;;;;;;;18.77;3.22;;;15.50;75.40;;;;;;4845360;29;20046;-89
2023/01/04 12:29:57;;;;;;;16.33;3.60;;;15.70;75.90;;;;;;4829595;29;20064;-75
2023/01/04 12:32:28;;;;;;;16.27;2.80;;;15.80;75.90;;;;;;4831051;29;20082;-76
2023/01/04 12:34:55;;;;;;;13.93;2.70;;;15.80;75.70;;;;;;4834887;29;20121;-77
2023/01/04 12:37:45;;;;;;;13.35;2.85;;;15.90;75.40;;;;;;4826760;29;20046;-75
2023/01/04 12:40:47;;;;;;;10.60;2.05;;;16.00;75.30;;;;;;4845779;29;20069;-76
2023/01/04 12:43:16;;;;;;;10.32;2.38;;;16.00;75.20;;;;;;4846038;29;20108;-77
2023/01/04 12:45:42;;;;;;;13.75;2.30;;;16.10;75.00;;;;;;4845817;29;20133;-76
2023/01/04 12:51:26;;;;;;;10.77;2.15;;;16.30;74.70;;;;;;4845621;29;20124;-75
2023/01/04 12:54:03;;;;;;;14.23;2.15;;;16.30;74.50;;;;;;4841127;29;20129;-75
2023/01/04 12:57:06;;;;;;;16.00;3.75;;;16.30;74.40;;;;;;4844672;29;20057;-75
2023/01/04 12:59:36;;;;;;;10.13;1.90;;;16.40;74.30;;;;;;4845733;29;20118;-76
2023/01/04 13:02:16;;;;;;;10.05;1.48;;;16.40;74.40;;;;;;4861460;29;20461;-75
2023/01/04 13:04:42;;;;;;;15.02;2.50;;;16.30;74.20;;;;;;4864209;29;20105;-77
2023/01/04 13:07:21;;;;;;;11.95;2.47;;;16.40;74.20;;;;;;4859646;29;20457;-77
2023/01/04 13:10:01;;;;;;;14.45;2.58;;;16.40;74.10;;;;;;4827337;29;20070;-76
2023/01/04 13:12:54;;;;;;;12.77;2.58;;;16.30;74.00;;;;;;4841106;29;20141;-74
2023/01/04 13:15:37;;;;;;;9.27;2.13;;;16.40;74.60;;;;;;4843917;29;20050;-80
2023/01/04 13:18:23;;;;;;;14.13;2.47;;;16.40;73.90;;;;;;4846065;29;20057;-74
2023/01/04 13:20:49;;;;;;;12.77;2.40;;;16.40;73.80;;;;;;4844959;29;20050;-77
2023/01/04 13:23:15;;;;;;;11.85;2.20;;;16.40;73.80;;;;;;4844774;29;20113;-75
2023/01/04 13:25:41;;;;;;;15.75;2.97;;;16.30;73.60;;;;;;4844676;29;20156;-76
2023/01/04 13:28:16;;;;;;;10.50;2.47;;;16.40;73.60;;;;;;4844589;29;20053;-74
2023/01/04 13:30:43;;;;;;;13.00;3.25;;;16.30;74.00;;;;;;4844442;29;20362;-73
2023/01/04 13:33:19;;;;;;;12.38;2.47;;;16.30;73.50;;;;;;4828247;29;20061;-75
2023/01/04 13:36:00;;;;;;;9.23;2.72;;;16.30;73.70;;;;;;4842301;29;20049;-74
2023/01/04 13:38:26;;;;;;;9.63;2.05;;;16.30;73.90;;;;;;4841614;29;20114;-74
2023/01/04 13:40:52;;;;;;;9.70;2.17;;;16.20;73.90;;;;;;4828050;29;20065;-74
2023/01/04 13:43:21;;;;;;;7.35;1.92;;;16.20;73.90;;;;;;4844305;29;20133;-75
2023/01/04 13:46:18;;;;;;;12.35;2.42;;;16.20;73.80;;;;;;4842476;29;20042;-73
2023/01/04 13:48:46;;;;;;;16.80;3.85;;;16.30;73.60;;;;;;4828089;29;20159;-74
2023/01/04 13:51:17;;;;;;;13.27;2.72;;;16.20;73.80;;;;;;4844176;29;20038;-74
2023/01/04 13:53:53;;;;;;;11.27;2.88;;;16.20;72.90;;;;;;4844142;29;20109;-73
2023/01/04 13:56:25;;;;;;;19.35;4.20;;;16.20;72.80;;;;;;4828179;29;20068;-74
2023/01/04 13:58:51;;;;;;;11.70;3.30;;;16.20;72.80;;;;;;4843506;29;20081;-73
2023/01/04 14:01:22;;;;;;;17.70;2.80;;;16.10;72.80;;;;;;4843290;29;20199;-74
2023/01/04 14:03:55;;;;;;;9.85;2.67;;;16.10;72.80;;;;;;4827775;29;20351;-74
2023/01/04 14:06:31;;;;;;;10.80;2.25;;;16.10;72.90;;;;;;4843755;29;20186;-73
2023/01/04 14:09:15;;;;;;;11.75;2.55;;;16.10;73.00;;;;;;4843538;29;20069;-73
2023/01/04 14:11:58;;;;;;;10.55;2.15;;;16.00;73.00;;;;;;4842748;29;20386;-73
2023/01/04 14:14:45;;;;;;;12.27;2.25;;;16.00;73.10;;;;;;4841355;29;20084;-75